Latest Weather Observations for Mount Buller

IDV60801

Issued at 9:32 am EST Saturday 25 June 2016 (issued every 30 minutes, with the page automatically refreshed every 10 minutes)

About weather observations | Map of weather stations | Latest weather observations for VIC | Other Formats
Station Details ID: 083024 Name: MOUNT BULLER Lat: -37.15 Lon: 146.44 Height: 1707.0 m
Data from the previous 72 hours. | See also: Recent months at Mount Buller
Date/Time
EST
Temp
°C
App
Temp
°C
Dew
Point
°C
Rel
Hum
%
Delta-T
°C
Wind Press
QNH
hPa
Press
MSL
hPa
Rain since
9am
mm
Dir  Spd
km/h
Gust
km/h
Spd
kts
Gust
kts
25/09:30am -4.6 -8.9 -4.7 99 -0.2 SSW 9 15 5 8 - - 0.0
25/09:00am -4.8 -9.1 -5.1 98 -0.1 S 9 13 5 7 - - 2.6
25/08:30am -4.9 -9.6 -5.2 98 -0.1 S 11 15 6 8 - - 2.6
25/08:00am -5.2 -9.9 -5.5 98 -0.1 SSW 11 17 6 9 - - 2.6
25/07:30am -5.3 -10.1 -5.6 98 -0.1 S 11 15 6 8 - - 2.6
25/07:00am -5.3 -10.1 -5.6 98 -0.1 S 11 13 6 7 - - 2.6
25/06:30am -5.4 -10.2 -5.7 98 -0.1 SSW 11 15 6 8 - - 2.6
25/06:00am -5.5 -10.7 -5.8 98 -0.1 SSW 13 19 7 10 - - 2.6
25/05:30am -5.5 -10.7 -5.8 98 -0.1 SSW 13 19 7 10 - - 2.6
25/05:00am -5.6 -10.8 -5.9 98 -0.1 SSW 13 15 7 8 - - 2.6
25/04:30am -5.6 -10.4 -5.9 98 -0.1 SSW 11 15 6 8 - - 2.6
25/04:00am -5.8 -10.6 -6.1 98 -0.1 SSW 11 19 6 10 - - 2.6
25/03:30am -5.9 -10.7 -6.2 98 -0.1 SSW 11 15 6 8 - - 2.6
25/03:00am -5.9 -11.1 -6.2 98 -0.1 SSW 13 19 7 10 - - 2.6
25/02:30am -6.0 -10.8 -6.3 98 -0.1 SSW 11 17 6 9 - - 2.6
25/02:00am -6.0 -10.8 -6.3 98 -0.1 SSW 11 17 6 9 - - 2.6
25/01:30am -5.9 -11.1 -6.2 98 -0.1 SSW 13 19 7 10 - - 2.6
25/01:00am -5.8 -11.0 -6.1 98 -0.1 SW 13 19 7 10 - - 2.6
25/12:30am -5.8 -11.0 -6.1 98 -0.1 SSW 13 19 7 10 - - 2.6
25/12:00am -5.7 -10.5 -6.0 98 -0.1 SW 11 15 6 8 - - 2.6
 
Date/Time
EST
Temp
°C
App
Temp
°C
Dew
Point
°C
Rel
Hum
%
Delta-T
°C
Wind Press
QNH
hPa
Press
MSL
hPa
Rain since
9am
mm
Dir  Spd
km/h
Gust
km/h
Spd
kts
Gust
kts
24/11:30pm -5.7 -10.1 -6.0 98 -0.1 SSW 9 17 5 9 - - 2.6
24/11:00pm -5.7 -10.1 -6.0 98 -0.1 SSW 9 17 5 9 - - 2.6
24/10:30pm -5.8 -10.6 -6.1 98 -0.1 SW 11 17 6 9 - - 2.6
24/10:00pm -5.9 -10.3 -6.2 98 -0.1 SW 9 15 5 8 - - 2.6
24/09:30pm -5.9 -10.7 -6.2 98 -0.1 SW 11 20 6 11 - - 2.6
24/09:00pm -5.9 -10.7 -6.2 98 -0.1 SSW 11 19 6 10 - - 2.6
24/08:30pm -5.9 -10.7 -6.2 98 -0.1 SW 11 19 6 10 - - 2.6
24/08:00pm -5.8 -10.6 -6.1 98 -0.1 SW 11 20 6 11 - - 2.6
24/07:30pm -5.8 -11.0 -6.1 98 -0.1 SW 13 20 7 11 - - 2.6
24/07:00pm -5.6 -10.4 -5.9 98 -0.1 SSW 11 17 6 9 - - 2.6
24/06:30pm -5.5 -9.5 -5.8 98 -0.1 SW 7 11 4 6 - - 2.6
24/06:00pm -5.4 -9.8 -5.7 98 -0.1 WSW 9 15 5 8 - - 2.6
24/05:30pm -5.2 -9.9 -5.5 98 -0.1 SW 11 20 6 11 - - 2.6
24/05:00pm -4.9 -10.4 -5.2 98 -0.1 WSW 15 22 8 12 - - 2.6
24/04:30pm -5.0 -10.9 -5.3 98 -0.1 WSW 17 28 9 15 - - 2.4
24/04:00pm -4.8 -11.2 -5.1 98 -0.1 W 20 26 11 14 - - 2.4
24/03:30pm -4.6 -10.4 -4.9 98 -0.1 WSW 17 28 9 15 - - 2.4
24/03:00pm -4.6 -11.0 -4.9 98 -0.1 WSW 20 32 11 17 - - 2.4
24/02:30pm -4.4 -10.6 -4.5 99 -0.2 W 19 32 10 17 - - 2.4
24/02:00pm -4.5 -12.4 -4.8 98 -0.1 WSW 28 48 15 26 - - 2.4
24/01:54pm -4.4 -12.3 -4.5 99 -0.2 WSW 28 46 15 25 - - 2.4
24/01:30pm -4.3 -13.1 -4.6 98 -0.1 W 33 44 18 24 - - 2.4
24/01:18pm -4.2 -15.1 -4.3 99 -0.2 W 44 63 24 34 - - 2.2
24/01:06pm -4.1 -11.9 -4.2 99 -0.1 W 28 56 15 30 - - 2.2
24/01:00pm -4.0 -11.5 -4.1 99 -0.1 WNW 26 44 14 24 - - 2.0
24/12:31pm -4.3 -12.9 -4.4 99 -0.2 W 32 50 17 27 - - 1.4
24/12:30pm -4.4 -13.2 -4.7 98 -0.1 W 33 50 18 27 - - 1.4
24/12:00pm -4.2 -12.1 -4.3 99 -0.2 W 28 46 15 25 - - 1.0
24/11:30am -3.9 -11.3 -4.0 99 -0.1 WNW 26 44 14 24 - - 1.0
24/11:01am -4.0 -11.8 -4.1 99 -0.1 WNW 28 46 15 25 - - 0.4
24/11:00am -4.0 -11.5 -4.1 99 -0.1 WNW 26 43 14 23 - - 0.4
24/10:30am -3.8 -12.0 -3.9 99 -0.1 WNW 30 44 16 24 - - 0.4
24/10:00am -3.7 -8.6 -3.8 99 -0.1 NW 13 28 7 15 - - 0.0
24/09:30am -3.8 -9.5 -3.9 99 -0.1 WNW 17 44 9 24 - - 0.0
24/09:00am -3.8 -8.8 -3.9 99 -0.1 NNW 13 35 7 19 - - 15.6
24/08:30am -4.0 -9.4 -4.1 99 -0.1 NNW 15 30 8 16 - - 15.4
24/08:00am -4.0 -11.8 -4.1 99 -0.1 N 28 50 15 27 - - 15.2
24/07:57am -4.1 -11.9 -4.2 99 -0.1 N 28 50 15 27 - - 15.2
24/07:30am -3.8 -11.2 -3.9 99 -0.1 NNW 26 32 14 17 - - 15.2
24/07:00am -3.9 -11.0 -4.0 99 -0.1 N 24 39 13 21 - - 15.0
24/06:30am -3.7 -10.0 -3.8 99 -0.1 N 20 33 11 18 - - 14.8
24/06:00am -3.4 -10.0 -3.5 99 -0.1 N 22 43 12 23 - - 14.6
24/05:46am -3.2 -11.3 -3.3 99 -0.1 N 30 48 16 26 - - 14.6
24/05:30am -3.1 -10.1 -3.2 99 -0.1 N 24 41 13 22 - - 14.2
24/05:00am -3.2 -10.2 -3.3 99 -0.1 NNW 24 41 13 22 - - 13.6
24/04:30am -3.1 -11.2 -3.2 99 -0.1 NNW 30 39 16 21 - - 13.2
24/04:00am -3.4 -9.1 -3.5 99 -0.1 N 17 32 9 17 - - 12.8
24/03:30am -3.3 -8.2 -3.4 99 -0.1 NNW 13 22 7 12 - - 12.4
24/03:00am -3.2 -8.5 -3.3 99 -0.1 N 15 28 8 15 - - 12.0
24/02:30am -3.3 -7.8 -3.4 99 -0.1 NNW 11 22 6 12 - - 11.4
24/02:00am -3.4 -7.9 -3.5 99 -0.1 NNW 11 20 6 11 - - 10.8
24/01:30am -3.4 -6.6 -3.5 99 -0.1 W 4 17 2 9 - - 10.0
24/01:00am -3.4 -7.2 -3.5 99 -0.1 WSW 7 19 4 10 - - 9.2
24/12:30am -3.4 -10.0 -3.5 99 -0.1 NW 22 39 12 21 - - 9.0
24/12:00am -3.4 -9.6 -3.5 99 -0.1 WNW 20 30 11 16 - - 8.8
 
Date/Time
EST
Temp
°C
App
Temp
°C
Dew
Point
°C
Rel
Hum
%
Delta-T
°C
Wind Press
QNH
hPa
Press
MSL
hPa
Rain since
9am
mm
Dir  Spd
km/h
Gust
km/h
Spd
kts
Gust
kts
23/11:30pm -3.4 -9.1 -3.5 99 -0.1 W 17 28 9 15 - - 8.8
23/11:00pm -3.4 -11.9 -3.5 99 -0.1 W 32 44 17 24 - - 8.6
23/10:31pm -2.4 -10.4 -2.5 99 -0.1 WNW 30 48 16 26 - - 8.0
23/10:30pm -2.3 -9.9 -2.4 99 -0.1 WNW 28 43 15 23 - - 8.0
23/10:11pm -0.3 -11.8 -0.4 99 0.0 NNW 50 82 27 44 - - 8.0
23/10:00pm -0.1 -13.3 -0.2 99 0.0 N 59 89 32 48 - - 7.4
23/09:30pm -0.1 -12.4 -0.2 99 0.0 N 54 72 29 39 - - 7.0
23/09:00pm -0.2 -12.9 -0.3 99 0.0 N 56 78 30 42 - - 6.4
23/08:30pm -0.5 -12.8 -0.6 99 0.0 N 54 80 29 43 - - 6.0
23/08:00pm -0.9 -12.5 -1.0 99 0.0 N 50 74 27 40 - - 5.8
23/07:31pm -1.0 -13.4 -1.1 99 0.0 N 54 72 29 39 - - 5.6
23/07:30pm -1.0 -13.8 -1.1 99 0.0 N 56 72 30 39 - - 5.6
23/07:00pm -0.9 -15.0 -1.0 99 0.0 N 63 87 34 47 - - 5.4
23/06:48pm -0.9 -14.6 -1.0 99 0.0 NNW 61 85 33 46 - - 5.4
23/06:46pm -0.9 -14.6 -1.0 99 0.0 NNW 61 85 33 46 - - 5.2
23/06:36pm -0.8 -14.1 -0.9 99 0.0 NNW 59 89 32 48 - - 5.2
23/06:35pm -0.8 -13.7 -0.9 99 0.0 N 57 89 31 48 - - 5.2
23/06:30pm -0.8 -12.8 -0.9 99 0.0 N 52 76 28 41 - - 5.2
23/06:00pm -0.8 -15.3 -0.9 99 0.0 N 65 91 35 49 - - 4.8
23/05:30pm -0.8 -15.6 -0.9 99 0.0 N 67 87 36 47 - - 4.4
23/05:19pm -0.8 -15.3 -0.9 99 0.0 N 65 102 35 55 - - 4.4
23/05:01pm -0.7 -14.4 -0.8 99 0.0 N 61 83 33 45 - - 3.8
23/05:00pm -0.7 -14.4 -0.8 99 0.0 N 61 76 33 41 - - 3.8
23/04:39pm -1.0 -13.4 -1.1 99 0.0 NNW 54 72 29 39 - - 3.2
23/04:30pm -1.0 -14.3 -1.1 99 0.0 NNW 59 72 32 39 - - 2.8
23/04:00pm -0.8 -14.5 -0.9 99 0.0 N 61 87 33 47 - - 2.0
23/03:30pm -0.8 -13.2 -0.9 99 0.0 N 54 78 29 42 - - 1.4
23/03:09pm -1.0 -15.5 -1.1 99 0.0 N 65 104 35 56 - - 1.4
23/03:00pm -0.5 -14.5 -0.6 99 0.0 N 63 83 34 45 - - 1.2
23/02:30pm -0.8 -14.1 -0.9 99 0.0 N 59 80 32 43 - - 0.8
23/02:00pm -1.1 -13.5 -1.2 99 0.0 N 54 82 29 44 - - 0.8
23/01:30pm -1.5 -15.3 -1.6 99 0.0 N 61 82 33 44 - - 0.8
23/01:00pm -1.3 -14.7 -1.4 99 0.0 N 59 83 32 45 - - 0.8
23/12:32pm -1.0 -14.0 -1.1 99 0.0 N 57 80 31 43 - - 0.6
23/12:30pm -1.0 -14.3 -1.1 99 0.0 N 59 83 32 45 - - 0.6
23/12:27pm -1.1 -14.1 -1.2 99 0.0 N 57 83 31 45 - - 0.6
23/12:00pm -0.9 -16.3 -1.0 99 0.0 NNW 70 89 38 48 - - 0.6
23/11:30am -0.9 -15.8 -1.0 99 0.0 N 67 89 36 48 - - 0.6
23/11:00am -0.7 -15.1 -0.8 99 0.0 NNW 65 89 35 48 - - 0.4
23/10:30am -0.8 -14.9 -0.9 99 0.0 NNW 63 87 34 47 - - 0.2
23/10:00am -0.8 -16.0 -0.9 99 0.0 NNW 69 87 37 47 - - 0.0
23/09:30am -1.0 -15.5 -1.1 99 0.0 NNW 65 83 35 45 - - 0.0
23/09:02am -0.9 -15.4 -1.0 99 0.0 NNW 65 83 35 45 - - 0.0
23/09:00am -0.9 -15.8 -1.0 99 0.0 NNW 67 83 36 45 - - 14.0
23/08:30am -1.0 -15.5 -1.1 99 0.0 NNW 65 87 35 47 - - 14.0
23/08:00am -0.9 -16.3 -1.0 99 0.0 NNW 70 89 38 48 - - 14.0
23/07:45am -0.7 -15.9 -0.8 99 0.0 NNW 69 87 37 47 - - 14.0
23/07:30am -0.8 -15.6 -0.9 99 0.0 NNW 67 82 36 44 - - 14.0
23/07:00am -1.1 -15.6 -1.2 99 0.0 NNW 65 83 35 45 - - 14.0
23/06:30am -0.8 -15.3 -0.9 99 0.0 NNW 65 87 35 47 - - 14.0
23/06:00am -0.6 -13.9 -0.7 99 0.0 NNW 59 85 32 46 - - 13.8
23/05:30am -0.3 -13.2 -0.4 99 0.0 NNW 57 76 31 41 - - 13.8
23/05:00am -0.2 -11.0 -0.3 99 0.0 NNW 46 82 25 44 - - 13.6
23/04:30am -0.7 -13.1 -0.8 99 0.0 NNW 54 80 29 43 - - 12.8
23/04:00am -0.5 -12.4 -0.6 99 0.0 N 52 87 28 47 - - 12.4
23/03:30am -0.1 -12.4 -0.2 99 0.0 NNW 54 72 29 39 - - 11.8
23/03:00am -0.2 -12.5 -0.3 99 0.0 NNW 54 80 29 43 - - 11.6
23/02:30am -0.2 -12.9 -0.3 99 0.0 NNW 56 74 30 40 - - 11.4
23/02:00am -0.1 -12.0 -0.2 99 0.0 NNW 52 72 28 39 - - 11.0
23/01:30am 0.0 -10.7 -0.1 99 0.0 N 46 74 25 40 - - 10.0
23/01:00am 0.1 -10.6 0.0 99 0.0 N 46 72 25 39 - - 10.0
23/12:30am 0.1 -8.9 0.0 99 0.0 N 37 74 20 40 - - 9.2
23/12:00am 0.1 -8.9 0.0 99 0.0 N 37 61 20 33 - - 8.8
 
Date/Time
EST
Temp
°C
App
Temp
°C
Dew
Point
°C
Rel
Hum
%
Delta-T
°C
Wind Press
QNH
hPa
Press
MSL
hPa
Rain since
9am
mm
Dir  Spd
km/h
Gust
km/h
Spd
kts
Gust
kts
22/11:30pm 0.0 -8.1 -0.1 99 0.0 N 32 61 17 33 - - 8.2
22/11:15pm 0.0 -6.9 -0.1 99 0.0 N 26 46 14 25 - - 7.6
22/11:00pm 0.0 -7.3 -0.1 99 0.0 NNW 28 56 15 30 - - 6.4
22/10:59pm 0.0 -7.3 -0.1 99 0.0 NNW 28 56 15 30 - - 6.4
22/10:30pm 0.0 -10.2 -0.1 99 0.0 N 43 72 23 39 - - 5.0
22/10:00pm 0.0 -9.0 -0.1 99 0.0 N 37 70 20 38 - - 4.6
22/09:30pm 0.0 -10.4 -0.1 99 0.0 N 44 69 24 37 - - 3.4
22/09:00pm 0.0 -8.3 -0.1 99 0.0 N 33 56 18 30 - - 3.2
22/08:31pm 0.0 -7.3 -0.1 99 0.0 N 28 52 15 28 - - 3.2
22/08:30pm 0.0 -6.9 -0.1 99 0.0 N 26 52 14 28 - - 3.2
22/08:00pm -0.1 -7.1 -0.2 99 0.0 N 26 46 14 25 - - 3.0
22/07:30pm -0.2 -6.8 -0.3 99 0.0 N 24 46 13 25 - - 3.0
22/07:00pm -0.3 -6.0 -0.4 99 0.0 N 19 37 10 20 - - 3.0
22/06:30pm -0.4 -5.7 -0.5 99 0.0 NNW 17 35 9 19 - - 2.8
22/06:00pm -0.5 -5.0 -0.6 99 0.0 NNW 13 33 7 18 - - 2.8
22/05:30pm -0.6 -6.3 -0.7 99 0.0 NNW 19 35 10 19 - - 2.8
22/05:00pm -0.5 -5.8 -0.6 99 0.0 N 17 33 9 18 - - 2.8
22/04:30pm -0.6 -5.2 -0.7 99 0.0 NW 13 33 7 18 - - 2.8
22/04:00pm -0.8 -7.5 -0.9 99 0.0 WNW 24 48 13 26 - - 2.6
22/03:30pm -0.9 -6.8 -1.0 99 0.0 WNW 20 43 11 23 - - 2.6
22/03:00pm -1.1 -8.2 -1.2 99 0.0 WNW 26 39 14 21 - - 2.6
22/02:38pm -1.1 -8.6 -1.2 99 0.0 WNW 28 52 15 28 - - 2.6
22/02:30pm -1.1 -7.8 -1.2 99 0.0 WNW 24 44 13 24 - - 2.4
22/02:09pm -1.2 -8.7 -1.3 99 0.0 WNW 28 48 15 26 - - 2.4
22/02:00pm -1.0 -7.7 -1.1 99 0.0 WNW 24 48 13 26 - - 2.2
22/01:30pm -0.9 -8.3 -1.0 99 0.0 WNW 28 50 15 27 - - 1.8
22/01:29pm -0.8 -8.2 -0.9 99 0.0 WNW 28 50 15 27 - - 1.8
22/01:00pm -0.9 -7.6 -1.0 99 0.0 WNW 24 44 13 24 - - 1.4
22/12:30pm -1.0 -8.5 -1.1 99 0.0 WNW 28 44 15 24 - - 0.8
22/12:00pm -1.4 -9.3 -1.5 99 0.0 WNW 30 52 16 28 - - 0.8
22/11:30am -1.4 -8.9 -1.5 99 0.0 W 28 46 15 25 - - 0.8
22/11:03am -1.7 -9.3 -1.8 99 0.0 W 28 54 15 29 - - 0.6
22/11:00am -1.6 -8.8 -1.7 99 0.0 W 26 43 14 23 - - 0.6
22/10:30am -1.2 -9.1 -1.3 99 0.0 W 30 50 16 27 - - 0.4
22/10:00am -1.5 -10.7 -1.6 99 0.0 W 37 56 20 30 - - 0.2

Other Formats:

Comma delimited format used in spreadsheet applications
http://www.bom.gov.au/fwo/IDV60801/IDV60801.94894.axf

JavaScript Object Notation format (JSON) in row-major order
http://www.bom.gov.au/fwo/IDV60801/IDV60801.94894.json